createdAt,value
2017-03-02T00:00:17.472Z,23.59
2017-03-02T00:00:57.966Z,23.57
2017-03-02T00:01:38.467Z,23.53
2017-03-02T00:02:18.953Z,23.55
2017-03-02T00:02:59.438Z,23.63
2017-03-02T00:03:39.941Z,23.62
2017-03-02T00:04:20.433Z,23.63
2017-03-02T00:05:00.941Z,23.67
2017-03-02T00:05:41.429Z,23.71
2017-03-02T00:06:21.917Z,23.67
2017-03-02T00:07:03.386Z,23.72
2017-03-02T00:07:42.908Z,23.55
2017-03-02T00:08:23.392Z,23.59
2017-03-02T00:09:03.894Z,23.63
2017-03-02T00:09:44.384Z,23.57
2017-03-02T00:10:24.884Z,23.6
2017-03-02T00:11:05.386Z,23.59
2017-03-02T00:11:45.876Z,23.55
2017-03-02T00:12:26.368Z,23.59
2017-03-02T00:13:06.860Z,23.57
2017-03-02T00:13:47.354Z,23.55
2017-03-02T00:14:27.838Z,23.55
2017-03-02T00:15:08.335Z,23.53
2017-03-02T00:15:48.831Z,23.55
2017-03-02T00:16:29.321Z,23.55
2017-03-02T00:17:09.826Z,23.56
2017-03-02T00:17:50.319Z,23.56
2017-03-02T00:18:30.803Z,23.53
2017-03-02T00:19:11.287Z,23.57
2017-03-02T00:19:51.799Z,23.56
2017-03-02T00:20:32.274Z,23.57
2017-03-02T00:21:12.769Z,23.6
2017-03-02T00:21:53.274Z,23.59
2017-03-02T00:22:33.778Z,23.56
2017-03-02T00:23:14.269Z,23.6
2017-03-02T00:23:54.758Z,23.66
2017-03-02T00:24:35.243Z,23.59
2017-03-02T00:25:15.728Z,23.57
2017-03-02T00:25:56.244Z,23.57
2017-03-02T00:26:36.729Z,23.55
2017-03-02T00:27:17.242Z,23.53
2017-03-02T00:27:57.723Z,23.59
2017-03-02T00:28:38.216Z,23.55
2017-03-02T00:29:18.716Z,23.53
2017-03-02T00:29:59.205Z,23.53
2017-03-02T00:30:39.936Z,23.5
2017-03-02T00:31:20.435Z,23.56
2017-03-02T00:32:00.924Z,23.56
2017-03-02T00:32:41.422Z,23.59
2017-03-02T00:33:21.918Z,23.56
2017-03-02T00:34:02.399Z,23.56
2017-03-02T00:34:42.888Z,23.59
2017-03-02T00:35:23.386Z,23.56
2017-03-02T00:36:03.884Z,23.57
2017-03-02T00:36:44.373Z,23.55
2017-03-02T00:37:24.880Z,23.57
2017-03-02T00:38:05.363Z,23.56
2017-03-02T00:38:45.850Z,23.55
2017-03-02T00:39:26.356Z,23.59
2017-03-02T00:40:06.843Z,23.56
2017-03-02T00:40:47.333Z,23.5
2017-03-02T00:41:27.828Z,23.5
2017-03-02T00:42:08.327Z,23.55
2017-03-02T00:42:48.807Z,23.57
2017-03-02T00:43:29.301Z,23.52
2017-03-02T00:44:09.799Z,23.57
2017-03-02T00:44:50.287Z,23.53
2017-03-02T00:45:30.800Z,23.55
2017-03-02T00:46:11.304Z,23.53
2017-03-02T00:46:51.800Z,23.56
2017-03-02T00:47:32.290Z,23.55
2017-03-02T00:48:12.797Z,23.56
2017-03-02T00:48:53.289Z,23.55
2017-03-02T00:49:33.797Z,23.56
2017-03-02T00:50:14.286Z,23.52
2017-03-02T00:50:54.773Z,23.55
2017-03-02T00:51:35.267Z,23.57
2017-03-02T00:52:15.762Z,23.55
2017-03-02T00:52:56.251Z,23.55
2017-03-02T00:53:36.730Z,23.53
2017-03-02T00:54:17.219Z,23.47
2017-03-02T00:54:57.713Z,23.45
2017-03-02T00:55:38.207Z,23.55
2017-03-02T00:56:18.998Z,23.52
2017-03-02T00:56:59.481Z,23.56
2017-03-02T00:57:39.971Z,23.47
2017-03-02T00:58:20.463Z,23.52
2017-03-02T00:59:00.959Z,23.5
2017-03-02T00:59:41.442Z,23.52
2017-03-02T01:00:21.940Z,23.57
2017-03-02T01:01:02.445Z,23.52
2017-03-02T01:01:42.922Z,23.53
2017-03-02T01:02:23.414Z,23.47
2017-03-02T01:03:03.899Z,23.44
2017-03-02T01:03:44.393Z,23.52
2017-03-02T01:04:24.887Z,23.5
2017-03-02T01:05:05.381Z,23.53
2017-03-02T01:05:45.877Z,23.55
2017-03-02T01:06:26.387Z,23.52
2017-03-02T01:07:06.882Z,23.53
2017-03-02T01:07:47.373Z,23.47
2017-03-02T01:08:27.859Z,23.47
2017-03-02T01:09:08.353Z,23.45
2017-03-02T01:09:48.855Z,23.5
2017-03-02T01:10:29.329Z,23.52
2017-03-02T01:11:09.815Z,23.53
2017-03-02T01:11:50.306Z,23.53
2017-03-02T01:12:30.799Z,23.55
2017-03-02T01:13:11.294Z,23.56
2017-03-02T01:13:51.776Z,23.57
2017-03-02T01:14:32.266Z,23.56
2017-03-02T01:15:12.772Z,23.53
2017-03-02T01:15:53.269Z,23.52
2017-03-02T01:16:33.767Z,23.55
2017-03-02T01:17:14.257Z,23.53
2017-03-02T01:17:54.747Z,23.48
2017-03-02T01:18:35.233Z,23.52
2017-03-02T01:19:15.722Z,23.53
2017-03-02T01:19:56.219Z,23.5
2017-03-02T01:20:36.693Z,23.48
2017-03-02T01:21:17.188Z,23.57
2017-03-02T01:21:57.683Z,23.48
2017-03-02T01:22:38.191Z,23.53
2017-03-02T01:23:18.689Z,23.53
2017-03-02T01:23:59.187Z,23.5
2017-03-02T01:24:39.666Z,23.57
2017-03-02T01:25:20.148Z,23.55
2017-03-02T01:26:00.637Z,23.53
2017-03-02T01:26:41.132Z,23.53
2017-03-02T01:27:21.629Z,23.59
2017-03-02T01:28:02.139Z,23.55
2017-03-02T01:28:42.602Z,23.52
2017-03-02T01:29:23.104Z,23.55
2017-03-02T01:30:03.594Z,23.52
2017-03-02T01:30:44.083Z,23.47
2017-03-02T01:31:24.573Z,23.52
2017-03-02T01:32:05.079Z,23.53
2017-03-02T01:32:45.567Z,23.55
2017-03-02T01:33:26.055Z,23.55
2017-03-02T01:34:06.554Z,23.55
2017-03-02T01:34:47.058Z,23.55
2017-03-02T01:35:27.551Z,23.57
2017-03-02T01:36:08.045Z,23.55
2017-03-02T01:36:48.556Z,23.53
2017-03-02T01:37:29.053Z,23.56
2017-03-02T01:38:09.548Z,23.55
2017-03-02T01:38:50.045Z,23.53
2017-03-02T01:39:30.537Z,23.59
2017-03-02T01:40:11.036Z,23.56
2017-03-02T01:40:51.525Z,23.59
2017-03-02T01:41:32.019Z,23.53
2017-03-02T01:42:12.516Z,23.53
2017-03-02T01:42:52.997Z,23.56
2017-03-02T01:43:33.497Z,23.56
2017-03-02T01:44:14.005Z,23.53
2017-03-02T01:44:54.481Z,23.55
2017-03-02T01:45:34.967Z,23.47
2017-03-02T01:46:15.475Z,23.53
2017-03-02T01:46:56.270Z,23.5
2017-03-02T01:47:36.759Z,23.44
2017-03-02T01:48:17.271Z,23.5
2017-03-02T01:48:57.766Z,23.57
2017-03-02T01:49:38.265Z,23.53
2017-03-02T01:50:18.746Z,23.53
2017-03-02T01:50:59.236Z,23.53
2017-03-02T01:51:39.735Z,23.48
2017-03-02T01:52:20.235Z,23.48
2017-03-02T01:53:00.743Z,23.53
2017-03-02T01:53:41.242Z,23.52
2017-03-02T01:54:21.739Z,23.5
2017-03-02T01:55:02.224Z,23.52
2017-03-02T01:55:42.743Z,23.52
2017-03-02T01:56:23.224Z,23.53
2017-03-02T01:57:03.735Z,23.52
2017-03-02T01:57:44.227Z,23.55
2017-03-02T01:58:24.722Z,23.56
2017-03-02T01:59:05.210Z,23.5
2017-03-02T01:59:45.704Z,23.47
2017-03-02T02:00:26.190Z,23.52
2017-03-02T02:01:06.687Z,23.52
2017-03-02T02:01:47.178Z,23.48
2017-03-02T02:02:27.673Z,23.52
2017-03-02T02:03:08.179Z,23.52
2017-03-02T02:03:48.665Z,23.53
2017-03-02T02:04:29.194Z,23.53
2017-03-02T02:05:10.604Z,23.53
2017-03-02T02:05:51.100Z,23.5
2017-03-02T02:06:31.601Z,23.53
2017-03-02T02:07:12.095Z,23.5
2017-03-02T02:07:52.572Z,23.5
2017-03-02T02:08:33.068Z,23.53
2017-03-02T02:09:13.547Z,23.56
2017-03-02T02:09:54.048Z,23.53
2017-03-02T02:10:34.545Z,23.45
2017-03-02T02:11:15.028Z,23.48
2017-03-02T02:11:55.517Z,23.47
2017-03-02T02:12:36.009Z,23.44
2017-03-02T02:13:16.512Z,23.45
2017-03-02T02:13:56.997Z,23.48
2017-03-02T02:14:37.493Z,23.52
2017-03-02T02:15:17.992Z,23.53
2017-03-02T02:15:58.485Z,23.5
2017-03-02T02:16:38.992Z,23.53
2017-03-02T02:17:19.748Z,23.56
2017-03-02T02:18:00.240Z,23.56
2017-03-02T02:18:40.744Z,23.59
2017-03-02T02:19:21.233Z,23.48
2017-03-02T02:20:01.740Z,23.48
2017-03-02T02:20:42.226Z,23.5
2017-03-02T02:21:22.718Z,23.53
2017-03-02T02:22:03.212Z,23.52
2017-03-02T02:22:43.706Z,23.5
2017-03-02T02:23:24.188Z,23.57
2017-03-02T02:24:04.682Z,23.56
2017-03-02T02:24:45.192Z,23.56
2017-03-02T02:25:25.684Z,23.53
2017-03-02T02:26:06.187Z,23.57
2017-03-02T02:26:46.684Z,23.56
2017-03-02T02:27:27.185Z,23.55
2017-03-02T02:28:07.680Z,23.6
2017-03-02T02:28:48.187Z,23.57
2017-03-02T02:29:28.685Z,23.55
2017-03-02T02:30:09.184Z,23.42
2017-03-02T02:30:49.664Z,23.48
2017-03-02T02:31:30.167Z,23.47
2017-03-02T02:32:10.667Z,23.38
2017-03-02T02:32:51.155Z,23.44
2017-03-02T02:33:31.640Z,23.5
2017-03-02T02:34:12.152Z,23.47
2017-03-02T02:34:52.633Z,23.42
2017-03-02T02:35:33.141Z,23.45
2017-03-02T02:36:13.627Z,23.52
2017-03-02T02:36:54.112Z,23.52
2017-03-02T02:37:34.596Z,23.52
2017-03-02T02:38:15.078Z,23.52
2017-03-02T02:38:55.575Z,23.5
2017-03-02T02:39:36.066Z,23.5
2017-03-02T02:40:16.554Z,23.48
2017-03-02T02:40:57.062Z,23.53
2017-03-02T02:41:37.560Z,23.55
2017-03-02T02:42:18.049Z,23.57
2017-03-02T02:42:58.694Z,23.53
2017-03-02T02:43:39.176Z,23.45
2017-03-02T02:44:19.669Z,23.48
2017-03-02T02:45:00.165Z,23.53
2017-03-02T02:45:40.670Z,23.5
2017-03-02T02:46:21.163Z,23.44
2017-03-02T02:47:01.662Z,23.53
2017-03-02T02:47:42.166Z,23.45
2017-03-02T02:48:22.651Z,23.53
2017-03-02T02:49:03.141Z,23.53
2017-03-02T02:49:43.640Z,23.48
2017-03-02T02:50:24.136Z,23.48
2017-03-02T02:51:04.614Z,23.42
2017-03-02T02:51:45.111Z,23.47
2017-03-02T02:52:25.616Z,23.53
2017-03-02T02:53:06.112Z,23.55
2017-03-02T02:53:46.610Z,23.48
2017-03-02T02:54:27.106Z,23.48
2017-03-02T02:55:07.608Z,23.48
2017-03-02T02:55:48.109Z,23.52
2017-03-02T02:56:28.612Z,23.57
2017-03-02T02:57:09.101Z,23.57
2017-03-02T02:57:49.611Z,23.47
2017-03-02T02:58:30.112Z,23.48
2017-03-02T02:59:10.604Z,23.53
2017-03-02T02:59:51.089Z,23.56
2017-03-02T03:00:31.578Z,23.55
2017-03-02T03:01:12.059Z,23.48
2017-03-02T03:01:52.554Z,23.53
2017-03-02T03:02:33.053Z,23.47
2017-03-02T03:03:13.545Z,23.52
2017-03-02T03:03:54.056Z,23.44
2017-03-02T03:04:34.547Z,23.5
2017-03-02T03:05:15.040Z,23.45
2017-03-02T03:05:55.549Z,23.44
2017-03-02T03:06:36.050Z,23.47
2017-03-02T03:07:16.549Z,23.52
2017-03-02T03:07:57.045Z,23.56
2017-03-02T03:08:37.538Z,23.48
2017-03-02T03:09:18.039Z,23.41
2017-03-02T03:09:58.548Z,23.6
2017-03-02T03:10:39.032Z,23.53
2017-03-02T03:11:19.529Z,23.38
2017-03-02T03:12:00.019Z,23.44
2017-03-02T03:12:40.505Z,23.47
2017-03-02T03:13:21.024Z,23.55
2017-03-02T03:14:01.502Z,23.56
2017-03-02T03:14:42.011Z,23.55
2017-03-02T03:15:22.489Z,23.5
2017-03-02T03:16:02.979Z,23.55
2017-03-02T03:17:55.605Z,23.53
2017-03-02T03:18:36.100Z,23.56
2017-03-02T03:19:16.580Z,23.52
2017-03-02T03:19:57.081Z,23.57
2017-03-02T03:20:37.571Z,23.52
2017-03-02T03:21:18.076Z,23.53
2017-03-02T03:21:58.597Z,23.5
2017-03-02T03:22:39.067Z,23.48
2017-03-02T03:23:19.572Z,23.56
2017-03-02T03:24:00.069Z,23.45
2017-03-02T03:24:40.570Z,23.55
2017-03-02T03:25:21.062Z,23.55
2017-03-02T03:26:01.573Z,23.53
2017-03-02T03:26:42.061Z,23.47
2017-03-02T03:27:22.579Z,23.5
2017-03-02T03:28:03.067Z,23.42
2017-03-02T03:28:43.564Z,23.48
2017-03-02T03:29:24.066Z,23.45
2017-03-02T03:30:04.561Z,23.59
2017-03-02T03:30:45.063Z,23.53
2017-03-02T03:31:25.561Z,23.52
2017-03-02T03:32:06.051Z,23.47
2017-03-02T03:32:46.537Z,23.53
2017-03-02T03:33:27.020Z,23.5
2017-03-02T03:34:07.516Z,23.53
2017-03-02T03:34:48.013Z,23.53
2017-03-02T03:35:28.505Z,23.5
2017-03-02T03:36:08.999Z,23.47
2017-03-02T03:36:49.498Z,23.52
2017-03-02T03:37:29.983Z,23.5
2017-03-02T03:38:10.478Z,23.45
2017-03-02T03:38:50.972Z,23.53
2017-03-02T03:39:31.444Z,23.52
2017-03-02T03:40:11.961Z,23.5
2017-03-02T03:40:52.451Z,23.5
2017-03-02T03:41:32.979Z,23.59
2017-03-02T03:42:13.460Z,23.56
2017-03-02T03:42:53.957Z,23.53
2017-03-02T03:43:34.578Z,23.42
2017-03-02T03:44:15.076Z,23.5
2017-03-02T03:44:55.572Z,23.56
2017-03-02T03:45:36.069Z,23.53
2017-03-02T03:46:16.551Z,23.55
2017-03-02T03:46:57.036Z,23.55
2017-03-02T03:47:37.524Z,23.5
2017-03-02T03:48:18.007Z,23.52
2017-03-02T03:48:58.492Z,23.48
2017-03-02T03:49:39.153Z,23.5
2017-03-02T03:50:19.491Z,23.48
2017-03-02T03:50:59.996Z,23.53
2017-03-02T03:51:40.480Z,23.52
2017-03-02T03:52:20.973Z,23.5
2017-03-02T03:53:01.465Z,23.57
2017-03-02T03:53:41.964Z,23.42
2017-03-02T03:54:22.442Z,23.5
2017-03-02T03:55:02.932Z,23.48
2017-03-02T03:55:43.416Z,23.5
2017-03-02T03:56:23.884Z,23.59
2017-03-02T03:57:04.416Z,23.48
2017-03-02T03:57:44.907Z,23.52
2017-03-02T03:58:25.408Z,23.47
2017-03-02T03:59:05.890Z,23.55
2017-03-02T03:59:46.382Z,23.48
2017-03-02T04:00:26.884Z,23.48
2017-03-02T04:01:07.372Z,23.5
2017-03-02T04:01:47.857Z,23.56
2017-03-02T04:02:28.341Z,23.55
2017-03-02T04:03:08.837Z,23.52
2017-03-02T04:03:49.330Z,23.47
2017-03-02T04:04:29.823Z,23.48
2017-03-02T04:05:10.329Z,23.52
2017-03-02T04:05:50.816Z,23.47
2017-03-02T04:06:31.303Z,23.56
2017-03-02T04:07:11.793Z,23.47
2017-03-02T04:07:52.296Z,23.52
2017-03-02T04:08:32.780Z,23.57
2017-03-02T04:09:13.277Z,23.52
2017-03-02T04:09:53.770Z,23.53
2017-03-02T04:10:34.257Z,23.52
2017-03-02T04:11:14.747Z,23.53
2017-03-02T04:11:55.232Z,23.53
2017-03-02T04:12:35.739Z,23.52
2017-03-02T04:13:16.218Z,23.45
2017-03-02T04:13:56.740Z,23.52
2017-03-02T04:14:37.216Z,23.52
2017-03-02T04:15:17.707Z,23.47
2017-03-02T04:15:58.189Z,23.56
2017-03-02T04:16:38.673Z,23.59
2017-03-02T04:17:19.168Z,23.53
2017-03-02T04:17:59.662Z,23.55
2017-03-02T04:18:40.155Z,23.55
2017-03-02T04:19:20.635Z,23.48
2017-03-02T04:20:01.122Z,23.5
2017-03-02T04:20:41.613Z,23.52
2017-03-02T04:21:22.108Z,23.55
2017-03-02T04:22:02.592Z,23.47
2017-03-02T04:22:43.075Z,23.55
2017-03-02T04:23:23.556Z,23.47
2017-03-02T04:24:04.071Z,23.59
2017-03-02T04:24:44.558Z,23.47
2017-03-02T04:25:25.045Z,23.52
2017-03-02T04:26:05.552Z,23.5
2017-03-02T04:26:46.038Z,23.48
2017-03-02T04:27:26.526Z,23.53
2017-03-02T04:28:07.008Z,23.45
2017-03-02T04:28:47.504Z,23.53
2017-03-02T04:29:28.252Z,23.53
2017-03-02T04:30:08.753Z,23.53
2017-03-02T04:30:49.253Z,23.57
2017-03-02T04:31:29.749Z,23.52
2017-03-02T04:32:10.259Z,23.48
2017-03-02T04:32:50.744Z,23.53
2017-03-02T04:33:31.241Z,23.5
2017-03-02T04:34:11.724Z,23.56
2017-03-02T04:34:52.212Z,23.48
2017-03-02T04:35:32.700Z,23.47
2017-03-02T04:36:13.195Z,23.57
2017-03-02T04:36:53.703Z,23.52
2017-03-02T04:37:34.194Z,23.53
2017-03-02T04:38:14.693Z,23.53
2017-03-02T04:38:55.186Z,23.52
2017-03-02T04:39:35.681Z,23.55
2017-03-02T04:40:16.170Z,23.57
2017-03-02T04:40:56.655Z,23.52
2017-03-02T04:41:37.145Z,23.47
2017-03-02T04:42:17.637Z,23.53
2017-03-02T04:42:58.132Z,23.42
2017-03-02T04:43:38.633Z,23.53
2017-03-02T04:44:19.137Z,23.48
2017-03-02T04:44:59.634Z,23.5
2017-03-02T04:45:40.126Z,23.48
2017-03-02T04:46:20.611Z,23.45
2017-03-02T04:47:01.095Z,23.53
2017-03-02T04:47:41.602Z,23.47
2017-03-02T04:48:22.084Z,23.57
2017-03-02T04:49:02.585Z,23.48
2017-03-02T04:49:43.077Z,23.56
2017-03-02T04:50:23.568Z,23.55
2017-03-02T04:51:04.056Z,23.59
2017-03-02T04:51:44.538Z,23.57
2017-03-02T04:52:25.035Z,23.55
2017-03-02T04:53:05.528Z,23.55
2017-03-02T04:53:46.020Z,23.57
2017-03-02T04:54:26.749Z,23.55
2017-03-02T04:55:07.272Z,23.66
2017-03-02T04:55:47.777Z,23.57
2017-03-02T04:56:28.277Z,23.57
2017-03-02T04:57:08.778Z,23.56
2017-03-02T04:57:49.277Z,23.56
2017-03-02T04:58:29.768Z,23.57
2017-03-02T04:59:10.253Z,23.59
2017-03-02T04:59:50.749Z,23.53
2017-03-02T05:00:31.248Z,23.57
2017-03-02T05:01:11.733Z,23.47
2017-03-02T05:01:52.224Z,23.47
2017-03-02T05:02:32.722Z,23.52
2017-03-02T05:03:13.214Z,23.53
2017-03-02T05:03:53.725Z,23.57
2017-03-02T05:04:34.211Z,23.6
2017-03-02T05:05:14.714Z,23.56
2017-03-02T05:05:55.216Z,23.57
2017-03-02T05:06:35.718Z,23.59
2017-03-02T05:07:16.215Z,23.57
2017-03-02T05:07:56.714Z,23.56
2017-03-02T05:08:37.220Z,23.56
2017-03-02T05:09:17.718Z,23.52
2017-03-02T05:09:58.201Z,23.57
2017-03-02T05:10:38.690Z,23.55
2017-03-02T05:11:19.175Z,23.53
2017-03-02T05:11:59.667Z,23.57
2017-03-02T05:12:40.163Z,23.55
2017-03-02T05:13:20.653Z,23.56
2017-03-02T05:14:01.147Z,23.57
2017-03-02T05:14:41.636Z,23.62
2017-03-02T05:15:22.135Z,23.6
2017-03-02T05:16:02.615Z,23.6
2017-03-02T05:16:43.111Z,23.59
2017-03-02T05:17:23.604Z,23.56
2017-03-02T05:18:04.106Z,23.56
2017-03-02T05:18:44.606Z,23.56
2017-03-02T05:19:25.101Z,23.56
2017-03-02T05:20:05.678Z,23.6
2017-03-02T05:20:46.156Z,23.57
2017-03-02T05:21:26.648Z,23.57
2017-03-02T05:22:07.151Z,23.56
2017-03-02T05:22:47.640Z,23.55
2017-03-02T05:23:28.128Z,23.56
2017-03-02T05:24:08.614Z,23.56
2017-03-02T05:24:49.125Z,23.53
2017-03-02T05:25:29.610Z,23.56
2017-03-02T05:26:10.105Z,23.56
2017-03-02T05:26:50.599Z,23.55
2017-03-02T05:27:31.087Z,23.55
2017-03-02T05:28:11.580Z,23.56
2017-03-02T05:28:52.096Z,23.56
2017-03-02T05:29:32.598Z,23.55
2017-03-02T05:30:13.068Z,23.57
2017-03-02T05:30:53.569Z,23.59
2017-03-02T05:31:34.048Z,23.55
2017-03-02T05:32:14.546Z,23.6
2017-03-02T05:32:55.040Z,23.47
2017-03-02T05:33:35.540Z,23.56
2017-03-02T05:34:16.038Z,23.56
2017-03-02T05:34:56.545Z,23.56
2017-03-02T05:35:37.033Z,23.57
2017-03-02T05:36:17.526Z,23.56
2017-03-02T05:36:58.031Z,23.53
2017-03-02T05:37:38.539Z,23.56
2017-03-02T05:38:19.038Z,23.55
2017-03-02T05:38:59.529Z,23.55
2017-03-02T05:39:40.038Z,23.64
2017-03-02T05:40:20.527Z,23.66
2017-03-02T05:41:01.027Z,23.67
2017-03-02T05:41:41.525Z,23.62
2017-03-02T05:42:22.009Z,23.59
2017-03-02T05:43:02.500Z,23.56
2017-03-02T05:43:43.008Z,23.57
2017-03-02T05:44:23.494Z,23.6
2017-03-02T05:45:04.000Z,23.55
2017-03-02T05:45:44.485Z,23.57
2017-03-02T05:46:24.967Z,23.55
2017-03-02T05:47:05.476Z,23.56
2017-03-02T05:47:45.997Z,23.57
2017-03-02T05:48:26.481Z,23.55
2017-03-02T05:49:06.962Z,23.53
2017-03-02T05:49:47.452Z,23.56
2017-03-02T05:50:27.938Z,23.57
2017-03-02T05:51:08.448Z,23.56
2017-03-02T05:51:48.936Z,23.6
2017-03-02T05:52:29.426Z,23.59
2017-03-02T05:53:09.921Z,23.59
2017-03-02T05:53:50.417Z,23.56
2017-03-02T05:54:30.918Z,23.56
2017-03-02T05:55:11.407Z,23.52
2017-03-02T05:55:51.921Z,23.56
2017-03-02T05:56:32.396Z,23.53
2017-03-02T05:57:12.886Z,23.56
2017-03-02T05:57:53.387Z,23.48
2017-03-02T05:58:33.885Z,23.56
2017-03-02T05:59:14.367Z,23.57
2017-03-02T05:59:54.869Z,23.56
2017-03-02T06:00:35.364Z,23.55
2017-03-02T06:01:15.858Z,23.56
2017-03-02T06:01:56.364Z,23.57
2017-03-02T06:02:36.848Z,23.57
2017-03-02T06:03:17.406Z,23.56
2017-03-02T06:03:57.905Z,23.53
2017-03-02T06:04:38.414Z,23.53
2017-03-02T06:05:18.909Z,23.57
2017-03-02T06:05:59.400Z,23.52
2017-03-02T06:06:39.913Z,23.52
2017-03-02T06:07:20.406Z,23.56
2017-03-02T06:08:00.881Z,23.52
2017-03-02T06:08:41.370Z,23.48
2017-03-02T06:09:21.858Z,23.47
2017-03-02T06:10:02.356Z,23.5
2017-03-02T06:10:42.846Z,23.47
2017-03-02T06:11:23.382Z,23.53
2017-03-02T06:12:03.844Z,23.5
2017-03-02T06:12:44.331Z,23.52
2017-03-02T06:13:24.825Z,23.47
2017-03-02T06:14:05.326Z,23.4
2017-03-02T06:14:45.813Z,23.5
2017-03-02T06:15:26.326Z,23.48
2017-03-02T06:16:06.819Z,23.42
2017-03-02T06:16:47.330Z,23.55
2017-03-02T06:17:27.821Z,23.53
2017-03-02T06:18:08.324Z,23.57
2017-03-02T06:18:48.810Z,23.55
2017-03-02T06:19:29.304Z,23.59
2017-03-02T06:20:09.800Z,23.53
2017-03-02T06:20:50.289Z,23.55
2017-03-02T06:21:30.788Z,23.52
2017-03-02T06:22:11.286Z,23.59
2017-03-02T06:22:51.792Z,23.59
2017-03-02T06:23:32.367Z,23.53
2017-03-02T06:24:12.866Z,23.59
2017-03-02T06:24:53.351Z,23.53
2017-03-02T06:25:33.845Z,23.55
2017-03-02T06:26:14.341Z,23.56
2017-03-02T06:26:54.836Z,23.55
2017-03-02T06:27:35.343Z,23.48
2017-03-02T06:28:15.825Z,23.47
2017-03-02T06:28:56.314Z,23.56
2017-03-02T06:29:36.795Z,23.57
2017-03-02T06:30:17.277Z,23.57
2017-03-02T06:30:57.786Z,23.45
2017-03-02T06:31:38.271Z,23.52
2017-03-02T06:32:18.760Z,23.45
2017-03-02T06:32:59.239Z,23.45
2017-03-02T06:33:39.733Z,23.44
2017-03-02T06:34:20.230Z,23.53
2017-03-02T06:35:00.729Z,23.42
2017-03-02T06:35:41.235Z,23.53
2017-03-02T06:36:21.897Z,23.48
2017-03-02T06:37:02.388Z,23.53
2017-03-02T06:37:42.883Z,23.5
2017-03-02T06:38:23.375Z,23.53
2017-03-02T06:39:03.881Z,23.52
2017-03-02T06:39:44.373Z,23.55
2017-03-02T06:40:24.875Z,23.53
2017-03-02T06:41:05.381Z,23.53
2017-03-02T06:41:45.881Z,23.44
2017-03-02T06:42:26.371Z,23.47
2017-03-02T06:43:06.880Z,23.48
2017-03-02T06:43:47.368Z,23.45
2017-03-02T06:44:27.871Z,23.52
2017-03-02T06:45:08.378Z,23.56
2017-03-02T06:45:48.866Z,23.53
2017-03-02T06:46:29.376Z,23.48
2017-03-02T06:47:09.862Z,23.59
2017-03-02T06:47:50.365Z,23.57
2017-03-02T06:48:30.868Z,23.59
2017-03-02T06:49:11.357Z,23.57
2017-03-02T06:49:51.847Z,23.57
2017-03-02T06:50:32.342Z,23.55
2017-03-02T06:51:12.845Z,23.55
2017-03-02T06:51:53.329Z,23.7
2017-03-02T06:52:33.819Z,23.7
2017-03-02T06:53:14.314Z,23.64
2017-03-02T06:53:54.811Z,23.7
2017-03-02T06:54:35.312Z,23.7
2017-03-02T06:55:15.817Z,23.7
2017-03-02T06:55:56.314Z,23.7
2017-03-02T06:56:36.795Z,23.72
2017-03-02T06:57:17.258Z,23.67
2017-03-02T06:57:57.753Z,23.67
2017-03-02T06:58:38.254Z,23.7
2017-03-02T06:59:18.738Z,23.75
2017-03-02T06:59:59.364Z,23.75
2017-03-02T07:00:39.861Z,23.71
2017-03-02T07:01:20.347Z,23.7
2017-03-02T07:02:01.136Z,23.78
2017-03-02T07:02:41.616Z,23.75
2017-03-02T07:03:22.100Z,23.72
2017-03-02T07:04:02.594Z,23.77
2017-03-02T07:04:43.086Z,23.75
2017-03-02T07:05:23.591Z,23.74
2017-03-02T07:06:04.176Z,23.71
2017-03-02T07:06:44.684Z,23.71
2017-03-02T07:07:25.175Z,23.77
2017-03-02T07:08:05.664Z,23.71
2017-03-02T07:08:46.162Z,23.63
2017-03-02T07:09:26.647Z,23.66
2017-03-02T07:10:07.134Z,23.62
2017-03-02T07:10:47.631Z,23.66
2017-03-02T07:11:28.126Z,23.66
2017-03-02T07:12:08.612Z,23.63
2017-03-02T07:12:49.107Z,23.64
2017-03-02T07:13:29.584Z,23.74
2017-03-02T07:14:10.071Z,23.71
2017-03-02T07:14:50.579Z,23.63
2017-03-02T07:15:31.060Z,23.59
2017-03-02T07:16:12.137Z,23.57
2017-03-02T07:16:52.639Z,23.6
2017-03-02T07:17:33.116Z,23.55
2017-03-02T07:18:13.616Z,23.55
2017-03-02T07:18:54.090Z,23.57
2017-03-02T07:19:34.585Z,23.5
2017-03-02T07:20:15.076Z,23.5
2017-03-02T07:20:55.560Z,23.52
2017-03-02T07:21:36.057Z,23.57
2017-03-02T07:22:16.558Z,23.47
2017-03-02T07:22:57.049Z,23.56
2017-03-02T07:23:37.559Z,23.52
2017-03-02T07:24:18.042Z,23.52
2017-03-02T07:24:58.551Z,23.53
2017-03-02T07:25:39.046Z,23.53
2017-03-02T07:26:19.545Z,23.56
2017-03-02T07:27:00.052Z,23.57
2017-03-02T07:27:40.550Z,23.52
2017-03-02T07:28:21.042Z,23.5
2017-03-02T07:29:01.535Z,23.55
2017-03-02T07:29:42.038Z,23.52
2017-03-02T07:30:22.525Z,23.52
2017-03-02T07:31:03.819Z,23.55
2017-03-02T07:31:44.186Z,23.53
2017-03-02T07:32:24.686Z,23.5
2017-03-02T07:33:05.168Z,23.5
2017-03-02T07:33:45.661Z,23.55
2017-03-02T07:34:26.159Z,23.53
2017-03-02T07:35:06.653Z,23.5
2017-03-02T07:35:47.159Z,23.59
2017-03-02T07:36:27.641Z,23.48
2017-03-02T07:37:08.134Z,23.56
2017-03-02T07:37:48.616Z,23.48
2017-03-02T07:38:29.112Z,23.52
2017-03-02T07:39:09.606Z,23.55
2017-03-02T07:39:50.095Z,23.52
2017-03-02T07:40:30.602Z,23.55
2017-03-02T07:41:11.096Z,23.52
2017-03-02T07:41:51.598Z,23.52
2017-03-02T07:42:32.108Z,23.5
2017-03-02T07:43:12.575Z,23.48
2017-03-02T07:43:53.055Z,23.38
2017-03-02T07:44:33.552Z,23.4
2017-03-02T07:45:14.043Z,23.55
2017-03-02T07:45:54.543Z,23.47
2017-03-02T07:46:35.052Z,23.48
2017-03-02T07:47:15.547Z,23.53
2017-03-02T07:47:56.044Z,23.52
2017-03-02T07:48:36.530Z,23.53
2017-03-02T07:49:17.014Z,23.53
2017-03-02T07:49:57.516Z,23.57
2017-03-02T07:50:38.013Z,23.56
2017-03-02T07:51:18.494Z,23.56
2017-03-02T07:51:58.974Z,23.5
2017-03-02T07:52:39.496Z,23.56
2017-03-02T07:53:19.990Z,23.5
2017-03-02T07:54:00.487Z,23.57
2017-03-02T07:54:40.981Z,23.55
2017-03-02T07:55:21.490Z,23.55
2017-03-02T07:56:01.971Z,23.59
2017-03-02T07:56:42.538Z,23.6
2017-03-02T07:57:23.033Z,23.57
2017-03-02T07:58:03.531Z,23.56
2017-03-02T07:58:44.032Z,23.56
2017-03-02T07:59:24.533Z,23.48
2017-03-02T08:00:05.034Z,23.57
2017-03-02T08:00:45.537Z,23.57
2017-03-02T08:01:26.030Z,23.56
2017-03-02T08:02:06.518Z,23.59
2017-03-02T08:02:47.007Z,23.57
2017-03-02T08:03:27.501Z,23.48
2017-03-02T08:04:08.000Z,23.52
2017-03-02T08:04:48.487Z,23.55
2017-03-02T08:05:29.002Z,23.53
2017-03-02T08:06:09.483Z,23.47
2017-03-02T08:06:49.980Z,23.5
2017-03-02T08:07:30.477Z,23.56
2017-03-02T08:08:10.975Z,23.59
2017-03-02T08:08:51.466Z,23.66
2017-03-02T08:09:31.958Z,23.72
2017-03-02T08:10:12.476Z,23.71
2017-03-02T08:10:52.971Z,23.67
2017-03-02T08:11:33.471Z,23.67
2017-03-02T08:12:13.964Z,23.67
2017-03-02T08:12:54.462Z,23.66
2017-03-02T08:13:34.964Z,23.64
2017-03-02T08:14:15.467Z,23.67
2017-03-02T08:14:55.957Z,23.75
2017-03-02T08:15:36.469Z,23.75
2017-03-02T08:16:16.989Z,23.79
2017-03-02T08:16:57.466Z,23.7
2017-03-02T08:17:38.178Z,23.78
2017-03-02T08:18:18.774Z,23.71
2017-03-02T08:18:59.258Z,23.81
2017-03-02T08:19:39.748Z,23.81
2017-03-02T08:20:20.243Z,23.82
2017-03-02T08:21:00.738Z,23.82
2017-03-02T08:21:41.227Z,23.85
2017-03-02T08:22:21.716Z,23.79
2017-03-02T08:23:02.216Z,23.79
2017-03-02T08:23:42.703Z,23.85
2017-03-02T08:24:23.193Z,23.77
2017-03-02T08:25:03.766Z,23.81
2017-03-02T08:25:44.355Z,23.81
2017-03-02T08:26:24.845Z,23.81
2017-03-02T08:27:05.327Z,23.78
2017-03-02T08:27:45.839Z,23.82
2017-03-02T08:28:26.332Z,23.87
2017-03-02T08:29:06.839Z,23.82
2017-03-02T08:29:47.322Z,23.87
2017-03-02T08:30:27.814Z,23.87
2017-03-02T08:31:08.312Z,23.87
2017-03-02T08:31:48.810Z,23.87
2017-03-02T08:32:29.310Z,23.96
2017-03-02T08:33:09.811Z,23.92
2017-03-02T08:33:50.302Z,23.94
2017-03-02T08:34:30.801Z,23.96
2017-03-02T08:35:11.298Z,23.85
2017-03-02T08:35:51.811Z,23.92
2017-03-02T08:36:32.304Z,23.93
2017-03-02T08:37:12.798Z,23.94
2017-03-02T08:37:53.301Z,23.99
2017-03-02T08:38:33.802Z,23.9
2017-03-02T08:39:14.305Z,23.96
2017-03-02T08:39:54.790Z,23.94
2017-03-02T08:40:35.321Z,23.85
2017-03-02T08:41:15.830Z,24.04
2017-03-02T08:41:56.323Z,24
2017-03-02T08:42:36.819Z,24.02
2017-03-02T08:43:17.576Z,23.96
2017-03-02T08:43:58.054Z,24.11
2017-03-02T08:44:39.174Z,24.03